Time;durP1;ratioP1;P1;durP2;ratioP2;P2;SDS_P1;SDS_P2;PMS_P1;PMS_P2;Temp;Humidity;BMP_temperature;BMP_pressure;BME280_temperature;BME280_humidity;BME280_pressure;Samples;Min_cycle;Max_cycle;Signal;HPM_P1;HPM_P2
2022/08/18 00:02:08;;;;;;;7.03;3.55;;;19.40;99.90;;;;;;4896027;29;20265;-89
2022/08/18 00:04:37;;;;;;;5.38;3.65;;;19.30;99.90;;;;;;4879553;29;20340;-93
2022/08/18 00:07:13;;;;;;;6.82;3.78;;;19.30;99.90;;;;;;4904499;29;20092;-89
2022/08/18 00:09:41;;;;;;;11.52;4.72;;;19.20;99.90;;;;;;4908436;29;20393;-89
2022/08/18 00:12:13;;;;;;;7.00;3.85;;;19.20;99.90;;;;;;4896023;29;20021;-90
2022/08/18 00:14:38;;;;;;;6.78;4.00;;;19.20;99.90;;;;;;4896620;29;20180;-89
2022/08/18 00:17:04;;;;;;;7.80;3.90;;;19.20;99.90;;;;;;4877921;29;20127;-88
2022/08/18 00:19:30;;;;;;;8.43;4.40;;;19.20;99.90;;;;;;4894799;29;20032;-89
2022/08/18 00:21:56;;;;;;;5.95;4.10;;;19.20;99.90;;;;;;4895846;29;20164;-89
2022/08/18 00:24:22;;;;;;;8.50;4.32;;;19.20;99.90;;;;;;4895055;29;20596;-89
2022/08/18 00:26:48;;;;;;;6.20;3.63;;;19.20;99.90;;;;;;4908909;29;20111;-89
2022/08/18 00:29:13;;;;;;;7.03;3.88;;;19.20;99.90;;;;;;4895242;29;20752;-89
2022/08/18 00:31:39;;;;;;;9.30;4.13;;;19.10;99.90;;;;;;4896099;29;20293;-89
2022/08/18 00:34:06;;;;;;;9.18;4.35;;;19.20;99.90;;;;;;4916642;29;20276;-89
2022/08/18 00:36:33;;;;;;;9.25;4.38;;;19.10;99.90;;;;;;4905984;29;20033;-89
2022/08/18 00:38:59;;;;;;;8.98;4.25;;;19.10;99.90;;;;;;4897903;29;20124;-89
2022/08/18 00:41:26;;;;;;;8.15;4.13;;;19.10;99.90;;;;;;4898564;29;20064;-89
2022/08/18 00:43:54;;;;;;;7.07;4.18;;;19.10;99.90;;;;;;4900506;29;20485;-89
2022/08/18 00:46:46;;;;;;;5.97;3.67;;;19.10;99.90;;;;;;4907873;29;20020;-89
2022/08/18 00:49:15;;;;;;;8.07;4.07;;;19.00;99.90;;;;;;4878346;29;20051;-90
2022/08/18 00:51:46;;;;;;;10.30;4.47;;;19.00;99.90;;;;;;4898218;29;21174;-89
2022/08/18 00:54:21;;;;;;;6.25;3.85;;;19.00;99.90;;;;;;4881206;29;20036;-89
2022/08/18 00:56:54;;;;;;;9.48;4.88;;;19.00;99.90;;;;;;4898238;29;20040;-89
2022/08/18 00:59:34;;;;;;;14.50;5.03;;;19.10;99.90;;;;;;4911393;29;20101;-90
2022/08/18 01:02:03;;;;;;;11.32;4.40;;;19.10;99.90;;;;;;4897847;29;20035;-89
2022/08/18 01:04:46;;;;;;;7.07;4.20;;;19.10;99.90;;;;;;4897602;29;20096;-89
2022/08/18 01:07:28;;;;;;;8.02;4.35;;;19.20;99.90;;;;;;4897683;29;20031;-90
2022/08/18 01:09:58;;;;;;;11.52;4.72;;;19.10;99.90;;;;;;4897770;29;20017;-89
2022/08/18 01:12:25;;;;;;;7.20;4.70;;;19.20;99.90;;;;;;4897302;29;20031;-88
2022/08/18 01:14:52;;;;;;;11.05;4.38;;;19.20;99.90;;;;;;4897319;29;20536;-93
2022/08/18 01:23:03;;;;;;;13.35;4.68;;;19.10;99.90;;;;;;4898161;29;20043;-89
2022/08/18 01:28:18;;;;;;;6.55;4.30;;;19.10;99.90;;;;;;4897109;29;20031;-89
2022/08/18 01:30:50;;;;;;;11.93;4.18;;;19.20;99.90;;;;;;4897535;29;20035;-89
2022/08/18 01:33:17;;;;;;;11.77;5.18;;;19.20;99.90;;;;;;4892429;29;20123;-89
2022/08/18 01:35:48;;;;;;;9.77;4.68;;;19.20;99.90;;;;;;4881122;29;20025;-89
2022/08/18 01:38:17;;;;;;;7.47;4.30;;;19.20;99.90;;;;;;4908544;29;20082;-89
2022/08/18 01:40:44;;;;;;;5.85;4.47;;;19.30;99.90;;;;;;4898633;29;20025;-89
2022/08/18 01:43:11;;;;;;;10.48;5.95;;;19.20;99.90;;;;;;4880595;29;20570;-89
2022/08/18 01:45:37;;;;;;;11.63;5.68;;;19.30;99.90;;;;;;4897253;29;20024;-89
2022/08/18 01:48:03;;;;;;;11.02;5.70;;;19.30;99.90;;;;;;4897012;29;20355;-89
2022/08/18 01:50:30;;;;;;;8.88;5.40;;;19.30;99.90;;;;;;4879812;29;20485;-90
2022/08/18 01:52:56;;;;;;;9.25;5.82;;;19.30;99.90;;;;;;4897397;29;20466;-93
2022/08/18 01:55:21;;;;;;;7.32;5.05;;;19.30;99.90;;;;;;4896067;29;20123;-89
2022/08/18 01:57:47;;;;;;;9.35;5.72;;;19.30;99.90;;;;;;4880691;29;20035;-90
2022/08/18 02:00:16;;;;;;;7.25;5.53;;;19.20;99.90;;;;;;4897523;29;20025;-89
2022/08/18 02:02:42;;;;;;;9.55;5.85;;;19.30;99.90;;;;;;4896657;29;20115;-88
2022/08/18 02:05:29;;;;;;;8.57;5.88;;;19.30;99.90;;;;;;4896945;29;20032;-89
2022/08/18 02:07:55;;;;;;;10.50;5.63;;;19.30;99.90;;;;;;4895344;29;20477;-89
2022/08/18 02:10:21;;;;;;;12.63;5.78;;;19.30;99.90;;;;;;4896887;29;20064;-93
2022/08/18 02:12:46;;;;;;;7.53;4.70;;;19.20;99.90;;;;;;4897598;29;20021;-89
2022/08/18 02:15:12;;;;;;;6.65;4.72;;;19.20;99.90;;;;;;4884827;29;20040;-92
2022/08/18 02:17:40;;;;;;;6.20;4.30;;;19.20;99.90;;;;;;4889799;29;20036;-89
2022/08/18 02:20:08;;;;;;;8.68;4.15;;;19.30;99.90;;;;;;4876473;29;20033;-89
2022/08/18 02:22:35;;;;;;;7.28;4.40;;;19.20;99.90;;;;;;4877524;29;20043;-92
2022/08/18 02:25:00;;;;;;;10.90;4.07;;;19.30;99.90;;;;;;4877926;29;20037;-89
2022/08/18 02:27:27;;;;;;;12.18;4.40;;;19.30;99.90;;;;;;4876187;29;20054;-89
2022/08/18 02:29:53;;;;;;;6.38;4.10;;;19.30;99.90;;;;;;4877714;29;20048;-90
2022/08/18 02:32:20;;;;;;;5.55;4.10;;;19.30;99.90;;;;;;4877367;29;20478;-89
2022/08/18 02:34:45;;;;;;;5.43;4.15;;;19.20;99.90;;;;;;4891679;29;20025;-89
2022/08/18 02:37:11;;;;;;;6.22;4.50;;;19.20;99.90;;;;;;4875622;29;20077;-89
2022/08/18 02:39:37;;;;;;;7.68;4.20;;;19.20;99.90;;;;;;4877173;29;20506;-89
2022/08/18 02:42:06;;;;;;;10.00;4.93;;;19.20;99.90;;;;;;4877407;29;20040;-89
2022/08/18 02:44:32;;;;;;;10.25;4.90;;;19.20;99.90;;;;;;4877313;29;20041;-89
2022/08/18 02:46:58;;;;;;;7.63;4.05;;;19.10;99.90;;;;;;4876070;29;20029;-89
2022/08/18 02:49:24;;;;;;;7.25;4.18;;;19.10;99.90;;;;;;4877064;29;20668;-89
2022/08/18 02:51:51;;;;;;;6.43;4.57;;;19.00;99.90;;;;;;4876749;29;20032;-89
2022/08/18 02:54:22;;;;;;;8.70;4.95;;;19.00;99.90;;;;;;4875099;29;20457;-90
2022/08/18 02:56:52;;;;;;;7.70;4.93;;;19.00;99.90;;;;;;4877562;29;20073;-89
2022/08/18 02:59:23;;;;;;;10.43;5.70;;;19.00;99.90;;;;;;4876844;29;20553;-90
2022/08/18 03:01:50;;;;;;;8.52;5.60;;;19.00;99.90;;;;;;4876860;29;20056;-89
2022/08/18 03:04:20;;;;;;;11.63;6.05;;;19.00;99.90;;;;;;4877060;29;20038;-89
2022/08/18 03:06:45;;;;;;;8.85;6.32;;;18.90;99.90;;;;;;4876775;29;20072;-89
2022/08/18 03:09:14;;;;;;;12.00;7.47;;;18.90;99.90;;;;;;4875802;29;20525;-90
2022/08/18 03:11:40;;;;;;;11.60;7.82;;;18.90;99.90;;;;;;4877214;29;20029;-89
2022/08/18 03:14:06;;;;;;;18.08;10.27;;;18.90;99.90;;;;;;4881323;29;20103;-89
2022/08/18 03:16:33;;;;;;;13.85;10.27;;;18.90;99.90;;;;;;4894883;29;20028;-89
2022/08/18 03:19:00;;;;;;;18.80;11.85;;;18.80;99.90;;;;;;4895179;29;20522;-89
2022/08/18 03:21:28;;;;;;;16.90;12.27;;;18.80;99.90;;;;;;4878417;29;20024;-89
2022/08/18 03:23:55;;;;;;;15.75;12.10;;;18.80;99.90;;;;;;4895476;29;20058;-89
2022/08/18 03:26:22;;;;;;;18.38;12.35;;;18.80;99.90;;;;;;4895409;29;20021;-89
2022/08/18 03:28:50;;;;;;;21.60;13.38;;;18.70;99.90;;;;;;4895443;29;20042;-89
2022/08/18 03:31:18;;;;;;;17.60;13.15;;;18.70;99.90;;;;;;4878437;29;20115;-90
2022/08/18 03:33:45;;;;;;;17.33;12.73;;;18.60;99.90;;;;;;4904492;29;20080;-89
2022/08/18 03:36:14;;;;;;;22.45;13.73;;;18.60;99.90;;;;;;4897330;29;20017;-91
2022/08/18 03:38:42;;;;;;;22.55;13.25;;;18.60;99.90;;;;;;4896095;29;20028;-89
2022/08/18 03:41:12;;;;;;;14.55;12.98;;;18.60;99.90;;;;;;4895355;29;20028;-89
2022/08/18 03:43:39;;;;;;;14.98;13.07;;;18.60;99.90;;;;;;4895030;29;20320;-89
2022/08/18 03:46:09;;;;;;;16.13;12.73;;;18.60;99.90;;;;;;4895226;29;20029;-88
2022/08/18 03:48:36;;;;;;;13.95;12.43;;;18.60;99.90;;;;;;4907410;29;20021;-89
2022/08/18 03:51:13;;;;;;;17.23;13.40;;;18.60;99.90;;;;;;4895836;29;20028;-89
2022/08/18 03:53:40;;;;;;;16.20;13.63;;;18.60;99.90;;;;;;4894940;29;20706;-89
2022/08/18 03:56:14;;;;;;;17.45;14.13;;;18.50;99.90;;;;;;4895030;29;20037;-89
2022/08/18 03:58:46;;;;;;;21.33;15.20;;;18.50;99.90;;;;;;4895009;29;20016;-89
2022/08/18 04:01:14;;;;;;;19.60;15.13;;;18.40;99.90;;;;;;4878385;29;20089;-89
2022/08/18 04:03:42;;;;;;;19.35;16.17;;;18.50;99.90;;;;;;4895138;29;20088;-89
2022/08/18 04:06:13;;;;;;;22.83;15.85;;;18.40;99.90;;;;;;4895647;29;20040;-89
2022/08/18 04:08:39;;;;;;;22.77;15.70;;;18.40;99.90;;;;;;4898605;29;20028;-89
2022/08/18 04:11:05;;;;;;;21.98;16.58;;;18.40;99.90;;;;;;4898365;29;20508;-89
2022/08/18 04:13:35;;;;;;;20.98;15.98;;;18.30;99.90;;;;;;4881711;29;20024;-89
2022/08/18 04:16:01;;;;;;;19.95;15.95;;;18.30;99.90;;;;;;4899357;29;20045;-89
2022/08/18 04:18:27;;;;;;;20.98;16.38;;;18.30;99.90;;;;;;4911525;29;20021;-88
2022/08/18 04:20:53;;;;;;;23.20;16.35;;;18.20;99.90;;;;;;4910537;29;20147;-89
2022/08/18 04:23:20;;;;;;;23.77;17.42;;;18.20;99.90;;;;;;4899456;29;20041;-88
2022/08/18 04:25:53;;;;;;;20.13;17.45;;;18.20;99.90;;;;;;4898415;29;20685;-89
2022/08/18 04:28:19;;;;;;;22.05;16.98;;;18.20;99.90;;;;;;4894562;29;20035;-90
2022/08/18 04:30:45;;;;;;;23.27;18.10;;;18.20;99.90;;;;;;4898257;29;20104;-89
2022/08/18 04:33:10;;;;;;;23.63;17.17;;;18.10;99.90;;;;;;4898307;29;20024;-88
2022/08/18 04:35:36;;;;;;;21.05;17.15;;;18.10;99.90;;;;;;4901836;29;20019;-89
2022/08/18 04:38:01;;;;;;;25.13;18.27;;;18.10;99.90;;;;;;4907348;29;20033;-89
2022/08/18 04:40:28;;;;;;;22.83;18.45;;;18.00;99.90;;;;;;4897953;29;20457;-88
2022/08/18 04:42:53;;;;;;;25.02;18.85;;;18.10;99.90;;;;;;4897883;29;20084;-89
2022/08/18 04:45:19;;;;;;;23.70;18.95;;;18.00;99.90;;;;;;4880948;29;20489;-90
2022/08/18 04:47:45;;;;;;;24.50;18.80;;;18.00;99.90;;;;;;4897547;29;20028;-89
2022/08/18 04:50:11;;;;;;;24.65;19.50;;;18.00;99.90;;;;;;4897858;29;20033;-90
2022/08/18 04:55:21;;;;;;;24.45;19.15;;;18.00;99.90;;;;;;4899129;29;20454;-89
2022/08/18 04:57:46;;;;;;;23.00;19.08;;;17.90;99.90;;;;;;4897811;29;20029;-89
2022/08/18 05:00:12;;;;;;;26.13;19.38;;;17.90;99.90;;;;;;4907832;29;20569;-91
2022/08/18 05:02:39;;;;;;;26.15;19.85;;;17.90;99.90;;;;;;4899191;29;20115;-89
2022/08/18 05:05:05;;;;;;;24.42;19.80;;;17.90;99.90;;;;;;4880459;29;20123;-89
2022/08/18 05:07:31;;;;;;;27.88;19.20;;;18.00;99.90;;;;;;4880479;29;20301;-89
2022/08/18 05:09:57;;;;;;;26.00;20.42;;;17.90;99.90;;;;;;4897780;29;20079;-89
2022/08/18 05:12:23;;;;;;;23.67;20.52;;;18.00;99.90;;;;;;4897554;29;20029;-89
2022/08/18 05:14:49;;;;;;;23.90;19.65;;;17.90;99.90;;;;;;4897291;29;20049;-90
2022/08/18 05:17:15;;;;;;;26.60;20.40;;;18.00;99.90;;;;;;4881118;29;20549;-87
2022/08/18 05:19:42;;;;;;;21.58;19.10;;;18.00;99.90;;;;;;4900040;29;20432;-87
2022/08/18 05:22:09;;;;;;;25.00;19.48;;;18.10;99.90;;;;;;4902663;29;20036;-87
2022/08/18 05:24:35;;;;;;;26.80;20.98;;;18.20;99.90;;;;;;4900422;29;20045;-88
2022/08/18 05:27:01;;;;;;;24.50;19.17;;;18.20;99.90;;;;;;4908275;29;20020;-88
2022/08/18 05:29:35;;;;;;;30.33;19.88;;;18.30;99.90;;;;;;4890304;29;20039;-87
2022/08/18 05:32:03;;;;;;;26.40;21.40;;;18.40;99.90;;;;;;4907308;29;20024;-87
2022/08/18 05:34:29;;;;;;;25.75;21.30;;;18.50;99.90;;;;;;4910612;29;20507;-87
2022/08/18 05:37:31;;;;;;;27.15;22.60;;;18.50;99.90;;;;;;4899017;29;20028;-87
2022/08/18 05:40:01;;;;;;;32.40;24.25;;;18.60;99.90;;;;;;4897789;29;20033;-87
2022/08/18 05:42:32;;;;;;;30.55;24.33;;;18.60;99.90;;;;;;4880141;29;20025;-87
2022/08/18 05:44:59;;;;;;;35.08;25.08;;;18.60;99.90;;;;;;4909853;29;20133;-87
2022/08/18 05:47:30;;;;;;;32.63;24.67;;;18.60;99.90;;;;;;4908065;29;20025;-87
2022/08/18 05:50:05;;;;;;;36.60;25.30;;;18.60;99.90;;;;;;4905956;29;20025;-88
2022/08/18 05:52:33;;;;;;;38.03;25.70;;;18.60;99.90;;;;;;4906066;29;20027;-87
2022/08/18 05:58:00;;;;;;;33.65;25.52;;;18.70;99.90;;;;;;4904394;29;20071;-87
2022/08/18 06:00:28;;;;;;;40.40;26.00;;;18.70;99.90;;;;;;4901328;29;20578;-87
2022/08/18 06:03:04;;;;;;;37.33;27.42;;;18.70;99.90;;;;;;4901626;29;20141;-86
2022/08/18 06:05:39;;;;;;;36.53;26.50;;;18.90;99.90;;;;;;4882473;29;20289;-87
2022/08/18 06:08:09;;;;;;;37.45;28.08;;;18.90;99.90;;;;;;4912855;29;20112;-87
2022/08/18 06:10:37;;;;;;;35.45;26.65;;;18.90;99.90;;;;;;4896533;29;20084;-87
2022/08/18 06:13:07;;;;;;;36.88;27.13;;;18.90;99.90;;;;;;4906828;29;20040;-87
2022/08/18 06:15:41;;;;;;;37.33;25.73;;;18.90;99.90;;;;;;4912080;29;20119;-88
2022/08/18 06:19:01;;;;;;;37.97;26.60;;;18.90;99.90;;;;;;4882267;29;20040;-88
2022/08/18 06:22:01;;;;;;;36.83;27.33;;;19.00;99.90;;;;;;4831077;29;20514;-87
2022/08/18 06:25:00;;;;;;;35.80;27.70;;;19.00;99.90;;;;;;4910202;29;20131;-87
2022/08/18 06:27:26;;;;;;;40.40;28.27;;;19.00;99.90;;;;;;4876772;29;20094;-87
2022/08/18 06:30:16;;;;;;;36.88;27.90;;;19.10;99.90;;;;;;4914091;29;20493;-87
2022/08/18 06:33:11;;;;;;;36.78;26.80;;;19.10;99.90;;;;;;4895581;29;20493;-87
2022/08/18 06:35:53;;;;;;;37.13;27.60;;;19.10;99.90;;;;;;4895848;29;20024;-87
2022/08/18 06:38:51;;;;;;;37.92;28.25;;;19.20;99.90;;;;;;4886347;29;20036;-87
2022/08/18 06:41:17;;;;;;;41.75;30.38;;;19.20;99.90;;;;;;4895760;29;20025;-87
2022/08/18 06:43:58;;;;;;;41.58;29.65;;;19.30;99.90;;;;;;4895368;29;20029;-87
2022/08/18 06:46:40;;;;;;;35.90;27.63;;;19.20;99.90;;;;;;4902763;29;20032;-87
2022/08/18 06:49:10;;;;;;;42.83;29.83;;;19.40;99.90;;;;;;4899382;29;20025;-87
2022/08/18 06:51:36;;;;;;;39.92;27.85;;;19.40;99.90;;;;;;4886753;29;20056;-87
2022/08/18 06:54:06;;;;;;;39.65;29.83;;;19.40;99.90;;;;;;4883816;29;20442;-88
2022/08/18 06:56:37;;;;;;;39.72;28.40;;;19.40;99.90;;;;;;4885033;29;20030;-87
2022/08/18 06:59:23;;;;;;;37.13;27.15;;;19.50;99.90;;;;;;4884279;29;20068;-87
2022/08/18 07:02:22;;;;;;;33.95;27.77;;;19.70;99.90;;;;;;4895101;29;20024;-87
2022/08/18 07:05:04;;;;;;;39.25;29.05;;;19.80;99.90;;;;;;4895175;29;20107;-87
2022/08/18 07:07:32;;;;;;;38.85;29.63;;;19.80;99.90;;;;;;4898526;29;20031;-87
2022/08/18 07:09:58;;;;;;;37.47;27.75;;;19.70;99.90;;;;;;4885183;29;20450;-87
2022/08/18 07:12:28;;;;;;;34.90;29.23;;;19.70;99.90;;;;;;4901878;29;20027;-87
2022/08/18 07:14:58;;;;;;;37.08;28.90;;;19.80;99.90;;;;;;4900487;29;20084;-87
2022/08/18 07:17:31;;;;;;;39.88;28.83;;;19.90;99.90;;;;;;4883292;29;20051;-88
2022/08/18 07:20:04;;;;;;;37.10;27.65;;;20.00;99.90;;;;;;4896590;29;20059;-87
2022/08/18 07:22:30;;;;;;;37.38;28.15;;;20.00;99.90;;;;;;4910261;29;20309;-87
2022/08/18 07:24:58;;;;;;;36.22;27.45;;;19.90;99.90;;;;;;4899226;29;20364;-88
2022/08/18 07:27:44;;;;;;;37.38;28.60;;;20.00;99.90;;;;;;4882631;29;20040;-87
2022/08/18 07:30:27;;;;;;;35.75;28.52;;;20.00;99.90;;;;;;4903504;29;20497;-87
2022/08/18 07:33:20;;;;;;;38.70;28.67;;;20.00;99.90;;;;;;4900318;29;20031;-87
2022/08/18 07:35:55;;;;;;;37.22;27.88;;;20.00;99.90;;;;;;4899874;29;20032;-87
2022/08/18 07:38:29;;;;;;;38.97;27.20;;;20.10;99.90;;;;;;4896292;29;20017;-87
2022/08/18 07:41:14;;;;;;;33.70;25.92;;;20.20;99.90;;;;;;4900750;29;20066;-88
2022/08/18 07:43:50;;;;;;;35.53;25.20;;;20.20;99.90;;;;;;4899987;29;20036;-87
2022/08/18 07:46:22;;;;;;;33.70;25.80;;;20.20;99.90;;;;;;4882136;29;20119;-88
2022/08/18 07:48:48;;;;;;;32.10;23.25;;;20.50;99.90;;;;;;4899097;29;20024;-87
2022/08/18 07:51:37;;;;;;;31.83;24.63;;;20.70;99.90;;;;;;4899217;29;20029;-87
2022/08/18 07:54:31;;;;;;;33.20;24.05;;;20.90;99.90;;;;;;4899383;29;20021;-87
2022/08/18 07:57:02;;;;;;;31.97;23.80;;;20.90;99.90;;;;;;4899311;29;20025;-88
2022/08/18 07:59:37;;;;;;;28.00;23.45;;;20.70;99.90;;;;;;4898520;29;20360;-87
2022/08/18 08:02:05;;;;;;;;;;;20.90;99.90;;;;;;4899361;29;20037;-87
2022/08/18 08:05:05;;;;;;;33.45;23.35;;;21.00;99.90;;;;;;4898558;29;20014;-87
2022/08/18 08:07:47;;;;;;;31.35;23.60;;;21.10;99.90;;;;;;4883697;29;20107;-87
2022/08/18 08:10:28;;;;;;;34.40;22.75;;;21.00;99.90;;;;;;4907318;29;20036;-87
2022/08/18 08:13:15;;;;;;;34.60;23.98;;;21.10;99.90;;;;;;4898628;29;20027;-87
2022/08/18 08:16:11;;;;;;;32.00;22.60;;;21.20;99.90;;;;;;4898675;29;20051;-87
2022/08/18 08:18:56;;;;;;;31.70;21.52;;;21.00;99.90;;;;;;4898482;29;20039;-87
2022/08/18 08:21:27;;;;;;;24.75;20.60;;;21.30;99.90;;;;;;4911388;29;20050;-87
2022/08/18 08:24:13;;;;;;;32.00;24.60;;;21.50;99.90;;;;;;4898241;29;20047;-87
2022/08/18 08:27:06;;;;;;;33.67;23.42;;;21.30;99.90;;;;;;4881001;29;20020;-87
2022/08/18 08:30:02;;;;;;;26.98;22.40;;;21.30;99.90;;;;;;4898311;29;20060;-87
2022/08/18 08:32:34;;;;;;;25.85;20.60;;;21.40;99.90;;;;;;4880203;29;20047;-87
2022/08/18 08:35:26;;;;;;;27.40;20.08;;;21.40;99.90;;;;;;4898282;29;20036;-87
2022/08/18 08:38:00;;;;;;;23.80;20.20;;;21.40;99.90;;;;;;4896834;29;20078;-87
2022/08/18 08:40:36;;;;;;;24.17;19.85;;;21.40;99.90;;;;;;4881201;29;20024;-87
2022/08/18 08:43:08;;;;;;;23.35;18.13;;;21.40;99.90;;;;;;4897912;29;20037;-87
2022/08/18 08:45:43;;;;;;;21.60;18.55;;;21.50;99.90;;;;;;4898155;29;20278;-87
2022/08/18 08:48:23;;;;;;;23.75;19.42;;;21.90;99.90;;;;;;4897741;29;20032;-87
2022/08/18 08:50:56;;;;;;;25.60;19.08;;;22.30;99.90;;;;;;4897976;29;20112;-87
2022/08/18 08:53:37;;;;;;;23.30;18.25;;;22.40;99.90;;;;;;4880296;29;20107;-87
2022/08/18 08:56:11;;;;;;;22.50;18.58;;;22.30;99.90;;;;;;4897813;29;20033;-87
2022/08/18 08:58:52;;;;;;;24.80;18.20;;;22.30;99.90;;;;;;4898186;29;20036;-87
2022/08/18 09:01:27;;;;;;;24.58;17.67;;;22.20;99.90;;;;;;4897844;29;20040;-87
2022/08/18 09:04:03;;;;;;;23.13;16.13;;;21.90;99.90;;;;;;4897266;29;20040;-87
2022/08/18 09:06:50;;;;;;;20.92;16.33;;;22.10;99.90;;;;;;4897198;29;20028;-87
2022/08/18 09:09:34;;;;;;;17.55;13.80;;;22.20;99.90;;;;;;4897534;29;20108;-87
2022/08/18 09:12:35;;;;;;;22.45;15.65;;;22.40;99.90;;;;;;4897460;29;20025;-87
2022/08/18 09:15:12;;;;;;;19.92;14.55;;;22.50;99.90;;;;;;4896855;29;20052;-87
2022/08/18 09:18:14;;;;;;;18.20;14.38;;;22.40;99.90;;;;;;4897040;29;20498;-87
2022/08/18 09:21:15;;;;;;;17.05;14.05;;;22.50;99.90;;;;;;4844532;29;20297;-88
2022/08/18 09:23:45;;;;;;;16.45;13.55;;;22.40;99.90;;;;;;4896331;29;20048;-87
2022/08/18 09:26:22;;;;;;;16.52;12.88;;;22.50;99.90;;;;;;4915407;29;20350;-87
2022/08/18 09:28:58;;;;;;;17.38;12.70;;;22.60;99.90;;;;;;4910100;29;20032;-87
2022/08/18 09:31:26;;;;;;;14.88;12.63;;;22.90;99.90;;;;;;4884145;29;20020;-87
2022/08/18 09:33:55;;;;;;;16.98;12.50;;;23.00;99.90;;;;;;4905351;29;20473;-87
2022/08/18 09:36:48;;;;;;;16.98;12.30;;;23.10;99.90;;;;;;4879787;29;20024;-87
2022/08/18 09:42:17;;;;;;;16.77;12.13;;;23.10;99.90;;;;;;4896268;29;20039;-87
2022/08/18 09:44:45;;;;;;;15.10;11.55;;;23.10;99.90;;;;;;4896332;29;20068;-87
2022/08/18 09:47:37;;;;;;;19.15;12.50;;;23.10;99.90;;;;;;4879497;29;20431;-87
2022/08/18 09:50:03;;;;;;;17.13;12.93;;;23.00;99.90;;;;;;4872206;29;20178;-87
2022/08/18 09:52:34;;;;;;;15.10;10.77;;;23.00;99.90;;;;;;4896506;29;20198;-87
2022/08/18 09:55:05;;;;;;;15.73;12.90;;;23.30;99.90;;;;;;4896492;29;20039;-87
2022/08/18 09:57:33;;;;;;;18.48;13.60;;;23.50;99.90;;;;;;4905268;29;20037;-87
2022/08/18 10:00:02;;;;;;;15.52;12.35;;;23.60;99.90;;;;;;4900668;29;20056;-87
2022/08/18 10:02:27;;;;;;;16.55;12.93;;;23.80;99.90;;;;;;4879787;29;20043;-87
2022/08/18 10:05:18;;;;;;;12.73;11.43;;;23.80;99.90;;;;;;4895431;29;20037;-87
2022/08/18 10:07:48;;;;;;;14.68;12.02;;;24.00;99.90;;;;;;4896450;29;20430;-87
2022/08/18 10:10:41;;;;;;;13.02;11.10;;;24.00;99.90;;;;;;4896263;29;20300;-87
2022/08/18 10:13:46;;;;;;;13.77;11.02;;;23.90;99.90;;;;;;4896242;29;20355;-87
2022/08/18 10:16:12;;;;;;;;;;;23.60;99.90;;;;;;4896900;29;20045;-87
2022/08/18 10:19:11;;;;;;;11.88;10.30;;;23.90;99.90;;;;;;4879143;29;19911;-87
2022/08/18 10:21:57;;;;;;;14.60;13.05;;;24.10;99.90;;;;;;4895886;29;20036;-87
2022/08/18 10:24:32;;;;;;;17.10;14.82;;;24.10;99.90;;;;;;4896030;29;20032;-87
2022/08/18 10:27:04;;;;;;;16.45;14.68;;;23.70;99.90;;;;;;4895784;29;20025;-87
2022/08/18 10:29:30;;;;;;;18.05;14.25;;;23.40;99.90;;;;;;4895601;29;20020;-87
2022/08/18 10:31:56;;;;;;;15.05;13.55;;;23.10;99.90;;;;;;4905945;29;20389;-86
2022/08/18 10:34:39;;;;;;;18.95;14.43;;;22.90;99.90;;;;;;4899870;29;20058;-86
2022/08/18 10:37:27;;;;;;;15.90;13.13;;;22.80;99.90;;;;;;4894060;29;20060;-86
2022/08/18 10:39:57;;;;;;;15.73;13.02;;;22.80;99.90;;;;;;4883298;29;20039;-86
2022/08/18 10:42:57;;;;;;;18.17;13.82;;;23.10;99.90;;;;;;4896817;29;20039;-87
2022/08/18 10:45:42;;;;;;;16.52;12.40;;;23.20;99.90;;;;;;4900058;29;20040;-87
2022/08/18 10:48:21;;;;;;;12.98;11.50;;;23.40;99.90;;;;;;4884477;29;20060;-87
2022/08/18 10:50:52;;;;;;;15.55;10.70;;;23.80;99.90;;;;;;4900991;29;20021;-87
2022/08/18 10:53:28;;;;;;;14.40;12.05;;;24.30;99.90;;;;;;4895422;29;20036;-87
2022/08/18 10:55:57;;;;;;;18.52;12.50;;;24.00;99.90;;;;;;4895730;29;20029;-87
2022/08/18 10:58:39;;;;;;;12.80;11.20;;;24.00;99.90;;;;;;4907577;29;20706;-87
2022/08/18 11:01:32;;;;;;;16.23;13.52;;;24.10;99.90;;;;;;4901223;29;20020;-87
2022/08/18 11:04:03;;;;;;;12.40;10.82;;;23.70;99.90;;;;;;4885382;29;20498;-87
2022/08/18 11:06:37;;;;;;;14.50;10.65;;;23.50;99.90;;;;;;4906220;29;20167;-87
2022/08/18 11:09:03;;;;;;;;;;;23.20;99.90;;;;;;4896590;29;20506;-87
2022/08/18 11:11:41;;;;;;;15.25;11.65;;;23.40;99.90;;;;;;4895618;29;19963;-87
2022/08/18 11:14:46;;;;;;;15.13;12.50;;;23.60;99.90;;;;;;4890173;29;20048;-87
2022/08/18 11:17:49;;;;;;;16.57;13.50;;;23.80;99.90;;;;;;4881877;29;20401;-87
2022/08/18 11:20:17;;;;;;;20.02;15.43;;;24.00;99.90;;;;;;4895246;29;20092;-87
2022/08/18 11:22:57;;;;;;;21.83;17.40;;;23.80;99.90;;;;;;4894969;29;20036;-87
2022/08/18 11:25:33;;;;;;;16.48;13.95;;;23.90;99.90;;;;;;4878252;29;20048;-87
2022/08/18 11:28:01;;;;;;;17.20;13.70;;;23.80;99.90;;;;;;4895029;29;20426;-87
2022/08/18 11:30:36;;;;;;;20.27;14.48;;;23.90;99.90;;;;;;4895241;29;20029;-87
2022/08/18 11:33:03;;;;;;;16.70;13.30;;;23.90;99.90;;;;;;4895201;29;20165;-87
2022/08/18 11:35:43;;;;;;;16.27;13.43;;;23.90;99.90;;;;;;4878457;29;20119;-87
2022/08/18 11:38:12;;;;;;;17.08;13.52;;;23.90;99.90;;;;;;4878086;29;20033;-87
2022/08/18 11:41:11;;;;;;;18.23;13.00;;;24.20;99.90;;;;;;4895113;29;20029;-87
2022/08/18 11:43:38;;;;;;;17.02;12.25;;;24.20;99.90;;;;;;4869239;29;20296;-87
2022/08/18 11:46:24;;;;;;;21.73;13.77;;;24.40;99.90;;;;;;4895035;29;20025;-88
2022/08/18 11:48:50;;;;;;;16.92;11.93;;;24.60;99.90;;;;;;4895714;29;20029;-87
2022/08/18 11:51:28;;;;;;;22.90;13.75;;;24.80;99.90;;;;;;4895171;29;20401;-87
2022/08/18 11:54:18;;;;;;;18.40;12.35;;;24.90;99.90;;;;;;4894379;29;20027;-88
2022/08/18 11:56:44;;;;;;;17.88;12.18;;;24.80;99.90;;;;;;4895503;29;20040;-87
2022/08/18 11:59:25;;;;;;;16.73;11.07;;;24.60;99.90;;;;;;4895130;29;20025;-87
2022/08/18 12:01:55;;;;;;;18.42;13.65;;;24.50;99.90;;;;;;4894711;29;20084;-87
2022/08/18 12:04:23;;;;;;;17.95;13.70;;;24.10;99.90;;;;;;4895202;29;20037;-87
2022/08/18 12:07:00;;;;;;;19.02;13.93;;;23.80;99.90;;;;;;4894749;29;20417;-87
2022/08/18 12:09:48;;;;;;;14.18;12.40;;;23.50;99.90;;;;;;4878187;29;20506;-87
2022/08/18 12:12:21;;;;;;;15.95;11.23;;;23.30;99.90;;;;;;4895354;29;20530;-87
2022/08/18 12:15:12;;;;;;;14.57;12.45;;;23.40;99.90;;;;;;4894909;29;20088;-88
2022/08/18 12:17:39;;;;;;;15.65;10.68;;;23.20;99.90;;;;;;4896377;29;20501;-87
2022/08/18 12:20:07;;;;;;;15.75;11.05;;;23.20;99.90;;;;;;4894795;29;20712;-87
2022/08/18 12:22:34;;;;;;;16.98;9.65;;;23.10;99.90;;;;;;4894770;29;20386;-87
2022/08/18 12:25:01;;;;;;;17.00;10.13;;;23.10;99.90;;;;;;4895035;29;20039;-87
2022/08/18 12:27:29;;;;;;;20.33;13.00;;;23.10;99.90;;;;;;4895741;29;20109;-87
2022/08/18 12:29:57;;;;;;;18.33;11.57;;;23.00;99.90;;;;;;4898242;29;20032;-87
2022/08/18 12:32:24;;;;;;;17.05;12.10;;;22.80;99.90;;;;;;4894414;29;20031;-87
2022/08/18 12:34:50;;;;;;;17.25;12.10;;;22.60;99.90;;;;;;4898193;29;20048;-87
2022/08/18 12:37:22;;;;;;;17.75;11.10;;;22.50;99.90;;;;;;4898204;29;20056;-87
2022/08/18 12:39:49;;;;;;;12.98;10.50;;;22.60;99.90;;;;;;4897865;29;20017;-87
2022/08/18 12:42:15;;;;;;;13.80;10.32;;;22.70;99.90;;;;;;4897686;29;20036;-87
2022/08/18 12:44:41;;;;;;;16.25;10.57;;;23.00;99.90;;;;;;4897628;29;20059;-87
2022/08/18 12:47:11;;;;;;;17.20;10.25;;;23.10;99.90;;;;;;4898261;29;20473;-88
2022/08/18 12:49:38;;;;;;;16.90;12.45;;;23.20;99.90;;;;;;4898096;29;20174;-87
2022/08/18 12:52:05;;;;;;;15.88;12.00;;;23.10;99.90;;;;;;4897991;29;20112;-85
2022/08/18 12:54:32;;;;;;;13.73;11.15;;;22.70;99.90;;;;;;4880661;29;20032;-85
2022/08/18 12:56:58;;;;;;;17.83;12.35;;;22.70;99.90;;;;;;4897989;29;20023;-85
2022/08/18 12:59:25;;;;;;;13.77;10.65;;;22.70;99.90;;;;;;4897983;29;20052;-85
2022/08/18 13:01:51;;;;;;;14.60;11.48;;;22.90;99.90;;;;;;4880539;29;20488;-86
2022/08/18 13:04:17;;;;;;;14.82;10.40;;;22.90;99.90;;;;;;4897163;29;20037;-85
2022/08/18 13:06:52;;;;;;;16.77;10.90;;;22.90;99.90;;;;;;4897223;29;20080;-86
2022/08/18 13:09:19;;;;;;;14.68;10.93;;;23.00;99.90;;;;;;4897144;29;20032;-85
2022/08/18 13:11:45;;;;;;;17.13;10.18;;;23.00;99.90;;;;;;4880442;29;20043;-85
2022/08/18 13:14:11;;;;;;;16.55;10.82;;;23.00;99.90;;;;;;4880329;29;20032;-85
2022/08/18 13:16:39;;;;;;;14.55;10.45;;;23.20;99.90;;;;;;4897048;29;20032;-85
2022/08/18 13:19:06;;;;;;;18.27;11.07;;;23.30;99.90;;;;;;4897618;29;20100;-85
2022/08/18 13:21:32;;;;;;;12.68;10.00;;;23.20;99.90;;;;;;4896887;29;20033;-86